Time;durP1;ratioP1;P1;durP2;ratioP2;P2;SDS_P1;SDS_P2;PMS_P1;PMS_P2;Temp;Humidity;BMP_temperature;BMP_pressure;BME280_temperature;BME280_humidity;BME280_pressure;Samples;Min_cycle;Max_cycle;Signal;HPM_P1;HPM_P2
2022/07/12 00:02:09;;;;;;;0.73;0.73;;;21.30;64.90;;;;;;5063743;28;43480;-61
2022/07/12 00:04:36;;;;;;;0.68;0.68;;;21.30;64.90;;;;;;5063665;28;43461;-61
2022/07/12 00:07:04;;;;;;;0.50;0.50;;;21.30;65.00;;;;;;5062763;28;43590;-61
2022/07/12 00:09:31;;;;;;;0.70;0.70;;;21.30;65.00;;;;;;5063867;28;43890;-61
2022/07/12 00:11:59;;;;;;;0.70;0.70;;;21.30;65.00;;;;;;5063242;28;43582;-61
2022/07/12 00:14:26;;;;;;;0.88;0.88;;;21.30;65.00;;;;;;5062848;28;43482;-61
2022/07/12 00:16:53;;;;;;;0.50;0.50;;;21.30;65.00;;;;;;5063391;28;43605;-61
2022/07/12 00:19:21;;;;;;;0.77;0.77;;;21.30;65.00;;;;;;5063736;28;44197;-61
2022/07/12 00:21:49;;;;;;;0.60;0.60;;;21.30;65.00;;;;;;5061984;28;43478;-60
2022/07/12 00:24:16;;;;;;;0.60;0.60;;;21.30;65.00;;;;;;5063906;28;43465;-61
2022/07/12 00:26:44;;;;;;;0.45;0.45;;;21.20;64.90;;;;;;5062343;28;43582;-61
2022/07/12 00:29:11;;;;;;;0.60;0.60;;;21.20;65.00;;;;;;5061950;28;44104;-61
2022/07/12 00:31:39;;;;;;;0.80;0.80;;;21.20;65.00;;;;;;5062713;28;43970;-60
2022/07/12 00:34:06;;;;;;;0.57;0.57;;;21.20;65.00;;;;;;5062989;28;43477;-61
2022/07/12 00:36:33;;;;;;;0.60;0.60;;;21.20;65.00;;;;;;5061493;28;43577;-61
2022/07/12 00:39:01;;;;;;;0.68;0.68;;;21.20;65.00;;;;;;5063105;28;44046;-61
2022/07/12 00:41:28;;;;;;;0.50;0.50;;;21.20;65.00;;;;;;5062328;28;44221;-61
2022/07/12 00:43:56;;;;;;;0.50;0.50;;;21.20;65.00;;;;;;5062992;28;43482;-61
2022/07/12 00:46:23;;;;;;;0.77;0.77;;;21.20;65.00;;;;;;5062957;28;43641;-60
2022/07/12 00:48:51;;;;;;;0.45;0.45;;;21.20;65.00;;;;;;5061937;28;44863;-61
2022/07/12 00:51:19;;;;;;;0.60;0.60;;;21.20;65.00;;;;;;5063393;28;43489;-61
2022/07/12 00:53:46;;;;;;;0.50;0.50;;;21.20;65.00;;;;;;5061966;28;43453;-61
2022/07/12 00:56:14;;;;;;;0.63;0.63;;;21.20;65.00;;;;;;5060535;28;43498;-61
2022/07/12 00:58:43;;;;;;;0.70;0.70;;;21.20;65.00;;;;;;5067257;28;44687;-61
2022/07/12 01:01:11;;;;;;;0.70;0.70;;;21.20;65.00;;;;;;5062538;28;44040;-61
2022/07/12 01:03:39;;;;;;;0.70;0.70;;;21.20;65.00;;;;;;5060885;28;43394;-61
2022/07/12 01:06:07;;;;;;;0.52;0.52;;;21.20;65.00;;;;;;5062419;28;43527;-61
2022/07/12 01:08:36;;;;;;;0.60;0.60;;;21.20;65.00;;;;;;5061126;28;44205;-61
2022/07/12 01:11:03;;;;;;;0.50;0.50;;;21.20;65.00;;;;;;5062457;28;44025;-61
2022/07/12 01:13:31;;;;;;;0.50;0.50;;;21.20;65.00;;;;;;5062491;28;43462;-61
2022/07/12 01:15:58;;;;;;;0.60;0.60;;;21.20;65.00;;;;;;5061901;28;43567;-61
2022/07/12 01:18:28;;;;;;;0.40;0.40;;;21.20;65.00;;;;;;5062441;28;43793;-61
2022/07/12 01:20:55;;;;;;;0.73;0.73;;;21.10;65.00;;;;;;5062639;28;43788;-61
2022/07/12 01:23:24;;;;;;;0.60;0.60;;;21.10;65.00;;;;;;5062145;28;43492;-61
2022/07/12 01:25:51;;;;;;;0.70;0.70;;;21.10;65.00;;;;;;5061777;28;43557;-61
2022/07/12 01:28:19;;;;;;;0.52;0.52;;;21.20;65.10;;;;;;5062309;28;44714;-60
2022/07/12 01:30:47;;;;;;;0.68;0.68;;;21.10;65.00;;;;;;5061204;28;43974;-61
2022/07/12 01:33:16;;;;;;;0.60;0.60;;;21.10;65.00;;;;;;5057443;28;43507;-61
2022/07/12 01:35:45;;;;;;;0.57;0.57;;;21.10;65.00;;;;;;5061613;28;43490;-61
2022/07/12 01:38:13;;;;;;;0.75;0.75;;;21.10;65.00;;;;;;5061682;28;45124;-61
2022/07/12 01:40:40;;;;;;;0.50;0.50;;;21.10;65.00;;;;;;5062314;28;43522;-61
2022/07/12 01:43:09;;;;;;;0.50;0.50;;;21.10;65.10;;;;;;5062258;28;43497;-61
2022/07/12 01:45:36;;;;;;;0.85;0.85;;;21.10;65.10;;;;;;5059346;28;43482;-61
2022/07/12 01:48:04;;;;;;;0.50;0.50;;;21.10;65.10;;;;;;5062012;28;44089;-61
2022/07/12 01:50:31;;;;;;;0.50;0.50;;;21.10;65.00;;;;;;5062032;28;43775;-61
2022/07/12 01:53:00;;;;;;;0.40;0.40;;;21.10;65.10;;;;;;5057664;28;43469;-61
2022/07/12 01:55:28;;;;;;;0.68;0.68;;;21.10;65.00;;;;;;5075743;28;43503;-61
2022/07/12 01:57:55;;;;;;;0.57;0.57;;;21.10;65.10;;;;;;5066203;28;45142;-61
2022/07/12 02:00:23;;;;;;;0.50;0.50;;;21.10;65.10;;;;;;5066896;27;44087;-61
2022/07/12 02:02:50;;;;;;;0.40;0.40;;;21.10;65.10;;;;;;5061329;28;43443;-61
2022/07/12 02:05:18;;;;;;;0.55;0.55;;;21.10;65.10;;;;;;5062791;28;43530;-61
2022/07/12 02:07:47;;;;;;;0.47;0.47;;;21.10;65.10;;;;;;5064336;28;43944;-62
2022/07/12 02:10:15;;;;;;;0.95;0.60;;;21.10;65.20;;;;;;5065401;28;43530;-61
2022/07/12 02:12:42;;;;;;;0.50;0.50;;;21.10;65.10;;;;;;5064901;28;43499;-61
2022/07/12 02:15:10;;;;;;;0.40;0.40;;;21.10;65.10;;;;;;5065599;28;43514;-61
2022/07/12 02:17:37;;;;;;;0.30;0.30;;;21.10;65.20;;;;;;5065213;28;44683;-61
2022/07/12 02:20:05;;;;;;;0.40;0.40;;;21.10;65.20;;;;;;5064928;28;43355;-61
2022/07/12 02:22:34;;;;;;;0.60;0.60;;;21.10;65.20;;;;;;5065181;28;43527;-61
2022/07/12 02:25:02;;;;;;;0.45;0.45;;;21.00;65.10;;;;;;5065194;28;43495;-60
2022/07/12 02:27:29;;;;;;;0.40;0.40;;;21.10;65.20;;;;;;5064387;28;45122;-61
2022/07/12 02:29:56;;;;;;;0.60;0.60;;;21.00;65.10;;;;;;5065062;28;43407;-61
2022/07/12 02:32:24;;;;;;;0.50;0.50;;;21.00;65.20;;;;;;5065216;28;43456;-61
2022/07/12 02:34:51;;;;;;;0.40;0.40;;;21.00;65.20;;;;;;5064436;28;43577;-61
2022/07/12 02:37:19;;;;;;;0.50;0.50;;;21.00;65.20;;;;;;5065039;28;45009;-59
2022/07/12 02:39:46;;;;;;;0.52;0.52;;;21.00;65.20;;;;;;5064313;28;43982;-61
2022/07/12 02:42:13;;;;;;;0.50;0.50;;;21.00;65.20;;;;;;5065231;28;43715;-61
2022/07/12 02:44:41;;;;;;;0.60;0.60;;;21.00;65.20;;;;;;5063556;28;43491;-61
2022/07/12 02:47:08;;;;;;;0.50;0.50;;;21.00;65.20;;;;;;5064543;28;45032;-61
2022/07/12 02:49:35;;;;;;;0.50;0.50;;;21.00;65.30;;;;;;5064108;28;43421;-61
2022/07/12 02:52:03;;;;;;;0.40;0.40;;;21.00;65.30;;;;;;5064960;28;43378;-61
2022/07/12 02:54:30;;;;;;;0.50;0.50;;;21.00;65.20;;;;;;5064641;28;43589;-60
2022/07/12 02:56:58;;;;;;;0.47;0.47;;;21.00;65.30;;;;;;5063934;28;46250;-61
2022/07/12 02:59:25;;;;;;;0.40;0.40;;;21.00;65.20;;;;;;5069328;28;44102;-61
2022/07/12 03:01:52;;;;;;;0.80;0.80;;;21.00;65.30;;;;;;5063627;28;43515;-60
2022/07/12 03:04:20;;;;;;;0.52;0.52;;;21.00;65.20;;;;;;5080736;28;43541;-61
2022/07/12 03:06:47;;;;;;;0.43;0.43;;;21.00;65.20;;;;;;5064113;28;44467;-61
2022/07/12 03:09:14;;;;;;;0.60;0.60;;;21.00;65.20;;;;;;5064594;28;44038;-61
2022/07/12 03:11:42;;;;;;;0.60;0.60;;;21.00;65.30;;;;;;5064620;28;43404;-60
2022/07/12 03:14:09;;;;;;;0.57;0.57;;;21.00;65.20;;;;;;5065254;28;43537;-61
2022/07/12 03:16:36;;;;;;;0.40;0.40;;;21.00;65.30;;;;;;5063666;28;44795;-61
2022/07/12 03:19:04;;;;;;;0.55;0.55;;;21.00;65.20;;;;;;5064001;28;43506;-61
2022/07/12 03:21:31;;;;;;;0.30;0.30;;;21.00;65.30;;;;;;5063773;28;43394;-60
2022/07/12 03:23:59;;;;;;;0.40;0.40;;;20.90;65.20;;;;;;5064038;28;43527;-61
2022/07/12 03:26:27;;;;;;;0.43;0.43;;;21.00;65.30;;;;;;5063446;28;45145;-61
2022/07/12 03:28:54;;;;;;;0.38;0.38;;;21.00;65.30;;;;;;5064093;28;44044;-61
2022/07/12 03:31:21;;;;;;;0.47;0.47;;;20.90;65.20;;;;;;5062894;28;43461;-61
2022/07/12 03:33:49;;;;;;;0.40;0.40;;;20.90;65.20;;;;;;5063590;28;44079;-61
2022/07/12 03:36:16;;;;;;;0.43;0.43;;;20.90;65.20;;;;;;5063739;28;43999;-61
2022/07/12 03:38:43;;;;;;;0.30;0.30;;;20.90;65.20;;;;;;5063732;28;43997;-61
2022/07/12 03:41:11;;;;;;;0.40;0.40;;;20.90;65.20;;;;;;5063914;28;43419;-61
2022/07/12 03:43:39;;;;;;;0.40;0.40;;;20.90;65.20;;;;;;5063414;28;43489;-60
2022/07/12 03:46:06;;;;;;;0.50;0.50;;;20.90;65.20;;;;;;5063287;28;45040;-61
2022/07/12 03:48:33;;;;;;;0.50;0.50;;;20.90;65.20;;;;;;5063011;28;43450;-61
2022/07/12 03:51:01;;;;;;;0.50;0.50;;;20.90;65.20;;;;;;5063778;28;43965;-61
2022/07/12 03:53:28;;;;;;;2.80;0.88;;;20.90;65.20;;;;;;5063477;28;43581;-61
2022/07/12 03:55:55;;;;;;;0.52;0.52;;;20.90;65.20;;;;;;5063224;28;43811;-61
2022/07/12 03:58:23;;;;;;;0.45;0.45;;;20.90;65.30;;;;;;5071537;28;43869;-61
2022/07/12 04:00:50;;;;;;;0.40;0.40;;;20.90;65.20;;;;;;5065201;27;43494;-61
2022/07/12 04:03:18;;;;;;;0.40;0.40;;;20.90;65.30;;;;;;5063803;28;43486;-61
2022/07/12 04:05:45;;;;;;;0.50;0.50;;;20.90;65.20;;;;;;5062510;28;45037;-61
2022/07/12 04:08:12;;;;;;;0.40;0.40;;;20.90;65.20;;;;;;5063775;28;44017;-61
2022/07/12 04:10:40;;;;;;;0.45;0.45;;;20.90;65.20;;;;;;5063668;28;43490;-61
2022/07/12 04:13:07;;;;;;;0.50;0.50;;;20.90;65.20;;;;;;5063214;28;43557;-61
2022/07/12 04:15:34;;;;;;;0.40;0.40;;;20.90;65.20;;;;;;5063178;28;44991;-62
2022/07/12 04:18:02;;;;;;;0.43;0.43;;;20.90;65.20;;;;;;5062882;28;43458;-61
2022/07/12 04:20:30;;;;;;;0.52;0.52;;;20.90;65.20;;;;;;5063108;28;43426;-61
2022/07/12 04:22:57;;;;;;;0.40;0.40;;;20.90;65.30;;;;;;5063127;28;43667;-61
2022/07/12 04:25:25;;;;;;;0.50;0.50;;;20.90;65.20;;;;;;5063301;28;45052;-61
2022/07/12 04:27:53;;;;;;;0.40;0.40;;;20.90;65.20;;;;;;5061796;28;43817;-61
2022/07/12 04:30:20;;;;;;;0.60;0.60;;;20.90;65.20;;;;;;5060083;28;43377;-61
2022/07/12 04:32:48;;;;;;;0.40;0.40;;;20.80;65.20;;;;;;5062248;28;43550;-61
2022/07/12 04:35:16;;;;;;;0.40;0.40;;;20.90;65.30;;;;;;5062973;28;45024;-61
2022/07/12 04:37:43;;;;;;;0.52;0.52;;;20.90;65.30;;;;;;5062781;28;43450;-61
2022/07/12 04:40:11;;;;;;;0.43;0.43;;;20.80;65.20;;;;;;5063426;28;43506;-61
2022/07/12 04:42:38;;;;;;;0.40;0.40;;;20.90;65.30;;;;;;5062485;28;43696;-61
2022/07/12 04:45:06;;;;;;;0.30;0.30;;;20.80;65.20;;;;;;5062709;28;45121;-61
2022/07/12 04:47:37;;;;;;;0.40;0.40;;;20.80;65.20;;;;;;5062056;28;43588;-61
2022/07/12 04:50:07;;;;;;;0.50;0.50;;;20.80;65.20;;;;;;5062035;28;43501;-61
2022/07/12 04:52:35;;;;;;;0.50;0.50;;;20.90;65.30;;;;;;5062880;28;43510;-61
2022/07/12 04:55:04;;;;;;;0.40;0.40;;;20.80;65.20;;;;;;5061130;28;45110;-61
2022/07/12 04:57:31;;;;;;;0.32;0.32;;;20.80;65.20;;;;;;5063496;28;43523;-61
2022/07/12 05:00:03;;;;;;;0.73;0.40;;;20.80;65.20;;;;;;5064805;27;43393;-61
2022/07/12 05:02:31;;;;;;;0.50;0.50;;;20.80;65.70;;;;;;5061633;28;43680;-61
2022/07/12 05:04:59;;;;;;;0.40;0.40;;;20.80;65.40;;;;;;5062738;28;44336;-61
2022/07/12 05:07:26;;;;;;;0.57;0.57;;;20.80;65.30;;;;;;5062450;28;43413;-61
2022/07/12 05:09:54;;;;;;;0.40;0.40;;;20.80;65.40;;;;;;5062240;28;43462;-61
2022/07/12 05:12:21;;;;;;;0.40;0.40;;;20.80;65.40;;;;;;5062801;28;43617;-61
2022/07/12 05:14:49;;;;;;;0.45;0.45;;;20.80;65.40;;;;;;5061762;28;45310;-61
2022/07/12 05:17:16;;;;;;;0.50;0.50;;;20.80;65.40;;;;;;5055879;28;44289;-61
2022/07/12 05:19:43;;;;;;;0.40;0.40;;;20.80;65.40;;;;;;5062408;28;43984;-61
2022/07/12 05:22:11;;;;;;;0.47;0.47;;;20.80;65.40;;;;;;5062188;28;43589;-60
2022/07/12 05:24:38;;;;;;;0.40;0.40;;;20.80;65.40;;;;;;5061965;28;45367;-61
2022/07/12 05:27:05;;;;;;;0.40;0.40;;;20.80;65.40;;;;;;5062063;28;43399;-61
2022/07/12 05:29:33;;;;;;;0.43;0.43;;;20.80;65.40;;;;;;5061708;28;43378;-61
2022/07/12 05:32:01;;;;;;;0.40;0.40;;;20.80;65.40;;;;;;5062041;28;43620;-61
2022/07/12 05:34:38;;;;;;;0.40;0.40;;;20.80;65.40;;;;;;5062022;28;44959;-60
2022/07/12 05:37:06;;;;;;;0.32;0.32;;;20.80;65.40;;;;;;5060062;28;43744;-61
2022/07/12 05:39:36;;;;;;;0.30;0.30;;;20.80;65.50;;;;;;5061120;28;43498;-61
2022/07/12 05:42:11;;;;;;;0.40;0.40;;;20.80;65.50;;;;;;5062274;28;43452;-61
2022/07/12 05:44:38;;;;;;;0.38;0.38;;;20.80;65.40;;;;;;5061869;28;44981;-61
2022/07/12 05:47:06;;;;;;;0.52;0.52;;;20.80;65.50;;;;;;5060658;28;44096;-61
2022/07/12 05:49:33;;;;;;;0.38;0.38;;;20.80;65.50;;;;;;5061904;28;43475;-61
2022/07/12 05:54:46;;;;;;;0.40;0.40;;;20.80;65.50;;;;;;5056664;28;44997;-60
2022/07/12 05:57:15;;;;;;;0.30;0.30;;;20.80;65.50;;;;;;5061536;28;44126;-61
2022/07/12 05:59:43;;;;;;;0.80;0.50;;;20.80;65.60;;;;;;5071397;28;43409;-60
2022/07/12 06:02:11;;;;;;;0.50;0.50;;;20.80;65.50;;;;;;5062000;28;43547;-61
2022/07/12 06:04:38;;;;;;;1.95;0.40;;;20.80;65.50;;;;;;5061720;28;44201;-61
2022/07/12 06:07:06;;;;;;;0.50;0.50;;;20.80;65.50;;;;;;5061073;28;43426;-61
2022/07/12 06:09:33;;;;;;;0.35;0.35;;;20.80;65.70;;;;;;5061920;28;43434;-61
2022/07/12 06:12:00;;;;;;;0.30;0.25;;;20.80;65.70;;;;;;5061155;28;43637;-60
2022/07/12 06:14:27;;;;;;;0.43;0.43;;;20.90;65.70;;;;;;5077630;28;44360;-61
2022/07/12 06:16:55;;;;;;;0.52;0.38;;;20.80;65.60;;;;;;5061112;28;44046;-61
2022/07/12 06:19:23;;;;;;;0.70;0.70;;;20.80;65.70;;;;;;5061949;28;43492;-61
2022/07/12 06:21:50;;;;;;;0.45;0.45;;;20.80;65.70;;;;;;5061047;28;43608;-60
2022/07/12 06:24:18;;;;;;;0.52;0.47;;;20.80;65.70;;;;;;5061816;28;44175;-61
2022/07/12 06:26:45;;;;;;;0.60;0.60;;;20.80;65.70;;;;;;5060651;28;44038;-61
2022/07/12 06:29:12;;;;;;;0.43;0.43;;;20.80;65.80;;;;;;5062024;28;43467;-61
2022/07/12 06:31:40;;;;;;;0.68;0.45;;;20.80;65.70;;;;;;5061109;28;43594;-61
2022/07/12 06:34:07;;;;;;;0.85;0.60;;;20.80;65.70;;;;;;5059434;28;44676;-61
2022/07/12 06:36:34;;;;;;;0.57;0.57;;;20.80;65.70;;;;;;5060740;28;43433;-61
2022/07/12 06:39:02;;;;;;;0.50;0.50;;;20.80;65.70;;;;;;5056122;28;43651;-61
2022/07/12 06:41:29;;;;;;;0.70;0.70;;;20.90;66.10;;;;;;5059658;28;43691;-60
2022/07/12 06:43:56;;;;;;;0.65;0.55;;;20.80;65.70;;;;;;5060119;28;45063;-61
2022/07/12 06:46:24;;;;;;;0.43;0.43;;;20.90;65.60;;;;;;5060590;28;44007;-61
2022/07/12 06:48:51;;;;;;;0.40;0.40;;;20.90;65.90;;;;;;5055369;28;43594;-60
2022/07/12 06:51:18;;;;;;;0.63;0.63;;;20.90;65.70;;;;;;5060958;28;43591;-61
2022/07/12 06:53:46;;;;;;;1.27;0.60;;;20.90;65.80;;;;;;5062735;28;44033;-61
2022/07/12 06:56:13;;;;;;;0.50;0.50;;;20.90;65.80;;;;;;5063434;28;43955;-61
2022/07/12 06:58:40;;;;;;;2.55;0.70;;;20.90;65.70;;;;;;5064444;28;43474;-61
2022/07/12 07:01:08;;;;;;;0.82;0.50;;;20.90;65.70;;;;;;5063057;28;43658;-61
2022/07/12 07:03:35;;;;;;;0.55;0.55;;;20.90;65.70;;;;;;5063079;28;44026;-61
2022/07/12 07:06:02;;;;;;;0.55;0.55;;;20.90;65.70;;;;;;5063309;28;43558;-61
2022/07/12 07:08:31;;;;;;;0.63;0.40;;;20.90;65.50;;;;;;5063401;28;43470;-61
2022/07/12 07:10:58;;;;;;;0.60;0.60;;;20.90;65.60;;;;;;5060333;28;43603;-61
2022/07/12 07:13:26;;;;;;;0.80;0.70;;;21.00;65.70;;;;;;5063087;28;44100;-61
2022/07/12 07:15:53;;;;;;;0.50;0.50;;;21.00;65.80;;;;;;5062820;28;43778;-60
2022/07/12 07:18:20;;;;;;;0.52;0.52;;;21.00;65.60;;;;;;5063738;28;44071;-60
2022/07/12 07:20:48;;;;;;;0.45;0.45;;;21.00;65.60;;;;;;5063404;28;44060;-60
2022/07/12 07:23:16;;;;;;;0.60;0.60;;;21.00;65.70;;;;;;5062769;28;43874;-60
2022/07/12 07:25:45;;;;;;;0.60;0.60;;;21.00;65.50;;;;;;5063274;28;43893;-61
2022/07/12 07:28:12;;;;;;;1.85;0.50;;;21.10;65.60;;;;;;5063748;28;43479;-60
2022/07/12 07:30:52;;;;;;;0.50;0.50;;;21.10;65.40;;;;;;5063322;28;43648;-61
2022/07/12 07:33:24;;;;;;;2.08;0.82;;;21.10;65.40;;;;;;5062636;28;44231;-62
2022/07/12 07:35:52;;;;;;;1.83;0.75;;;21.10;65.70;;;;;;5062653;28;44004;-61
2022/07/12 07:38:20;;;;;;;0.88;0.88;;;21.10;65.80;;;;;;5062364;28;43464;-61
2022/07/12 07:40:48;;;;;;;1.25;0.88;;;21.10;65.90;;;;;;5063456;28;43747;-60
2022/07/12 07:43:15;;;;;;;0.65;0.65;;;21.10;66.00;;;;;;5062479;28;44203;-60
2022/07/12 07:45:42;;;;;;;0.85;0.85;;;21.10;65.80;;;;;;5062857;28;43467;-60
2022/07/12 07:48:09;;;;;;;2.75;0.93;;;21.20;66.20;;;;;;5062430;28;43465;-60
2022/07/12 07:50:50;;;;;;;2.00;0.88;;;21.20;65.90;;;;;;5060196;28;43542;-60
2022/07/12 07:53:18;;;;;;;1.75;1.05;;;21.20;65.90;;;;;;5062870;28;44880;-60
2022/07/12 07:55:45;;;;;;;0.73;0.68;;;21.20;65.90;;;;;;5062502;28;43963;-60
2022/07/12 07:58:15;;;;;;;1.73;0.90;;;21.20;65.70;;;;;;5062324;28;43972;-60
2022/07/12 08:00:43;;;;;;;1.92;1.00;;;21.20;66.10;;;;;;5062765;28;43548;-60
2022/07/12 08:03:11;;;;;;;1.73;0.77;;;21.20;66.10;;;;;;5061374;28;45014;-60
2022/07/12 08:05:38;;;;;;;1.02;0.90;;;21.20;66.10;;;;;;5062246;28;44050;-60
2022/07/12 08:08:06;;;;;;;1.30;0.88;;;21.20;66.10;;;;;;5062920;28;43450;-60
2022/07/12 08:10:33;;;;;;;1.88;0.90;;;21.20;66.20;;;;;;5061546;28;43595;-60
2022/07/12 08:13:00;;;;;;;1.58;0.70;;;21.20;66.20;;;;;;5060493;28;44046;-60
2022/07/12 08:15:28;;;;;;;1.67;0.70;;;21.20;66.30;;;;;;5062641;28;43464;-60
2022/07/12 08:17:56;;;;;;;1.35;1.00;;;21.20;66.10;;;;;;5062760;28;43388;-61
2022/07/12 08:20:25;;;;;;;1.80;1.10;;;21.20;66.70;;;;;;5062686;28;43528;-61
2022/07/12 08:23:12;;;;;;;0.90;0.90;;;21.20;66.40;;;;;;5061328;28;44170;-60
2022/07/12 08:25:40;;;;;;;2.08;1.02;;;21.20;66.70;;;;;;5061896;28;43683;-61
2022/07/12 08:28:08;;;;;;;0.82;0.80;;;21.20;66.80;;;;;;5063492;28;43435;-61
2022/07/12 08:30:35;;;;;;;0.85;0.85;;;21.20;66.10;;;;;;5061777;28;43464;-61
2022/07/12 08:33:09;;;;;;;1.10;1.00;;;21.20;66.10;;;;;;5062896;28;43786;-60
2022/07/12 08:35:36;;;;;;;1.80;0.80;;;21.20;65.90;;;;;;5062987;28;43470;-61
2022/07/12 08:38:03;;;;;;;1.48;0.93;;;21.20;65.90;;;;;;5063157;28;43463;-60
2022/07/12 08:40:31;;;;;;;1.33;0.80;;;21.20;65.90;;;;;;5062750;28;43577;-60
2022/07/12 08:43:00;;;;;;;1.55;0.73;;;21.30;65.90;;;;;;5062913;28;44071;-60
2022/07/12 08:45:27;;;;;;;1.17;1.08;;;21.30;65.80;;;;;;5063225;28;43458;-60
2022/07/12 08:47:55;;;;;;;0.80;0.80;;;21.30;65.80;;;;;;5062113;28;43469;-60
2022/07/12 08:50:24;;;;;;;0.90;0.90;;;21.30;65.90;;;;;;5063399;28;43497;-60
2022/07/12 08:52:52;;;;;;;0.50;0.50;;;21.30;65.70;;;;;;5062157;28;44976;-60
2022/07/12 08:55:30;;;;;;;0.90;0.90;;;21.30;66.60;;;;;;5062730;28;44066;-61
2022/07/12 08:58:00;;;;;;;1.52;0.77;;;21.30;65.70;;;;;;5063648;28;43470;-61
2022/07/12 09:00:27;;;;;;;0.82;0.82;;;21.40;65.90;;;;;;5062671;28;43605;-60
2022/07/12 09:02:58;;;;;;;1.92;1.00;;;21.40;65.80;;;;;;5055110;28;43806;-61
2022/07/12 09:05:27;;;;;;;1.65;1.08;;;21.40;65.80;;;;;;5058380;28;43481;-62
2022/07/12 09:08:05;;;;;;;1.83;1.10;;;21.40;65.80;;;;;;5058870;28;43510;-61
2022/07/12 09:10:51;;;;;;;1.38;0.90;;;21.40;65.70;;;;;;5060286;28;43551;-61
2022/07/12 09:13:18;;;;;;;0.77;0.77;;;21.50;65.60;;;;;;5061509;28;44984;-61
2022/07/12 09:15:50;;;;;;;0.80;0.77;;;21.50;65.70;;;;;;5060918;28;44278;-62
2022/07/12 09:18:22;;;;;;;0.77;0.77;;;21.50;65.60;;;;;;5060551;28;43527;-61
2022/07/12 09:20:52;;;;;;;2.40;0.90;;;21.50;65.60;;;;;;5061426;28;43373;-61
2022/07/12 09:23:20;;;;;;;1.73;0.80;;;21.50;65.70;;;;;;5061329;28;44054;-61
2022/07/12 09:25:50;;;;;;;0.80;0.80;;;21.50;65.70;;;;;;5059723;28;44126;-61
2022/07/12 09:28:18;;;;;;;1.27;0.80;;;21.50;65.70;;;;;;5061851;28;43425;-61
2022/07/12 09:30:50;;;;;;;0.95;0.82;;;21.50;65.60;;;;;;5060856;28;43625;-62
2022/07/12 09:36:06;;;;;;;4.82;1.40;;;21.60;65.50;;;;;;5061284;28;43553;-62
2022/07/12 09:38:35;;;;;;;3.95;1.30;;;21.60;65.40;;;;;;5061504;28;43534;-62
2022/07/12 09:41:03;;;;;;;3.22;1.50;;;21.60;65.50;;;;;;5061576;28;43664;-61
2022/07/12 09:43:32;;;;;;;4.30;1.10;;;21.60;65.40;;;;;;5059959;28;45019;-61
2022/07/12 09:45:59;;;;;;;1.30;1.00;;;21.60;65.30;;;;;;5061288;28;43920;-61
2022/07/12 09:48:28;;;;;;;1.30;1.20;;;21.60;65.60;;;;;;5061609;28;43586;-62
2022/07/12 09:50:57;;;;;;;1.10;1.00;;;21.70;65.80;;;;;;5060922;28;43660;-61
2022/07/12 09:53:37;;;;;;;2.47;1.27;;;21.70;65.60;;;;;;5061042;28;44984;-62
2022/07/12 09:56:06;;;;;;;3.38;1.45;;;21.70;65.50;;;;;;5060804;28;43502;-62
2022/07/12 09:58:40;;;;;;;2.58;1.10;;;21.70;65.50;;;;;;5060678;28;43392;-62
2022/07/12 10:01:08;;;;;;;4.50;1.30;;;21.70;65.50;;;;;;5060296;28;43483;-61
2022/07/12 10:03:42;;;;;;;1.80;0.98;;;21.70;65.30;;;;;;5061396;28;45175;-61
2022/07/12 10:06:12;;;;;;;1.17;0.90;;;21.80;65.30;;;;;;5061764;28;44204;-61
2022/07/12 10:08:40;;;;;;;3.72;1.10;;;21.80;65.20;;;;;;5061272;28;43501;-62
2022/07/12 10:11:08;;;;;;;1.42;0.93;;;21.80;65.40;;;;;;5061653;28;43661;-61
2022/07/12 10:13:36;;;;;;;7.05;1.45;;;21.70;65.30;;;;;;5061530;28;45323;-61
2022/07/12 10:16:05;;;;;;;1.60;1.02;;;21.80;65.50;;;;;;5061838;28;43685;-62
2022/07/12 10:18:33;;;;;;;2.70;1.30;;;21.80;65.70;;;;;;5061409;28;43456;-61
2022/07/12 10:21:00;;;;;;;2.75;1.30;;;21.80;65.80;;;;;;5061811;28;43633;-61
2022/07/12 10:23:34;;;;;;;1.88;1.17;;;21.80;65.60;;;;;;5061527;28;45128;-61
2022/07/12 10:26:14;;;;;;;1.63;1.02;;;21.80;65.60;;;;;;5062055;28;43380;-61
2022/07/12 10:29:18;;;;;;;1.20;1.10;;;21.80;65.50;;;;;;5065125;28;43462;-61
2022/07/12 10:31:47;;;;;;;1.50;1.02;;;21.80;65.60;;;;;;5057112;28;43655;-61
2022/07/12 10:34:21;;;;;;;3.30;1.00;;;21.80;65.70;;;;;;5064656;28;44054;-61
2022/07/12 10:36:54;;;;;;;1.83;0.93;;;21.80;65.70;;;;;;5064495;28;44103;-61
2022/07/12 10:40:12;;;;;;;1.90;1.00;;;21.80;65.60;;;;;;5064514;28;43469;-62
2022/07/12 10:42:41;;;;;;;1.73;0.82;;;21.90;65.40;;;;;;5064073;28;43506;-61
2022/07/12 10:45:14;;;;;;;1.63;1.30;;;21.90;65.40;;;;;;5064590;28;44017;-61
2022/07/12 10:47:54;;;;;;;1.67;1.05;;;21.90;65.60;;;;;;5063858;28;44153;-61
2022/07/12 10:50:43;;;;;;;2.50;1.10;;;21.90;65.40;;;;;;5063284;28;43457;-61
2022/07/12 10:53:22;;;;;;;1.33;1.02;;;21.90;65.60;;;;;;5050980;28;43443;-61
2022/07/12 10:56:06;;;;;;;1.75;1.00;;;21.90;65.60;;;;;;5058516;28;44809;-61
2022/07/12 10:58:54;;;;;;;0.88;0.88;;;21.90;65.20;;;;;;5060107;28;43509;-61
2022/07/12 11:01:29;;;;;;;1.15;0.95;;;21.90;65.30;;;;;;5059738;28;43426;-61
2022/07/12 11:04:10;;;;;;;1.80;1.10;;;21.90;65.20;;;;;;5064337;28;43422;-61
2022/07/12 11:06:41;;;;;;;2.13;1.00;;;21.90;65.30;;;;;;5064043;28;44781;-62
2022/07/12 11:09:10;;;;;;;2.47;1.02;;;22.00;65.20;;;;;;5064110;28;43465;-62
2022/07/12 11:11:48;;;;;;;1.13;0.90;;;22.00;65.20;;;;;;5063929;28;43447;-61
2022/07/12 11:14:24;;;;;;;1.50;0.98;;;22.00;65.20;;;;;;5052069;28;43498;-61
2022/07/12 11:16:54;;;;;;;1.02;0.85;;;22.00;65.20;;;;;;5061305;28;45019;-61
2022/07/12 11:19:25;;;;;;;1.25;0.77;;;22.00;65.10;;;;;;5063184;28;43973;-61
2022/07/12 11:21:57;;;;;;;1.00;1.00;;;22.00;65.20;;;;;;5059907;28;43418;-61
2022/07/12 11:24:36;;;;;;;1.02;0.93;;;22.00;65.10;;;;;;5063811;28;43540;-62
2022/07/12 11:27:05;;;;;;;0.90;0.90;;;22.10;65.10;;;;;;5058603;28;44993;-62
2022/07/12 11:29:32;;;;;;;0.95;0.80;;;22.10;65.00;;;;;;5063592;28;43550;-62
2022/07/12 11:32:06;;;;;;;1.20;1.02;;;22.10;65.00;;;;;;5063575;28;43465;-62
2022/07/12 11:34:38;;;;;;;1.23;0.88;;;22.10;65.10;;;;;;5060120;28;43566;-62
2022/07/12 11:37:06;;;;;;;0.88;0.88;;;22.10;64.90;;;;;;5063039;28;44077;-62
2022/07/12 11:39:35;;;;;;;1.00;0.88;;;22.10;65.00;;;;;;5063275;28;43461;-62
2022/07/12 11:42:04;;;;;;;0.70;0.70;;;22.10;65.10;;;;;;5063910;28;43505;-62
2022/07/12 11:44:51;;;;;;;0.90;0.90;;;22.10;64.90;;;;;;5063568;28;43509;-62
2022/07/12 11:47:22;;;;;;;1.00;1.00;;;22.20;65.70;;;;;;5063854;28;44989;-62
2022/07/12 11:49:52;;;;;;;1.58;0.90;;;22.20;65.00;;;;;;5063196;28;43402;-62
2022/07/12 11:52:21;;;;;;;1.13;0.80;;;22.20;64.90;;;;;;5063713;28;43535;-63
2022/07/12 11:54:51;;;;;;;0.63;0.63;;;22.20;64.90;;;;;;5063669;28;43494;-62
2022/07/12 11:57:25;;;;;;;1.23;1.10;;;22.20;65.00;;;;;;5063504;28;43899;-62
2022/07/12 11:59:53;;;;;;;0.90;0.90;;;22.30;65.00;;;;;;5053550;28;43419;-62
2022/07/12 12:02:21;;;;;;;0.90;0.90;;;22.30;64.90;;;;;;5063686;28;43454;-62
2022/07/12 12:04:53;;;;;;;0.82;0.73;;;22.30;65.10;;;;;;5063057;28;43463;-62
2022/07/12 12:07:23;;;;;;;0.88;0.88;;;22.30;64.90;;;;;;5063583;28;43619;-62
2022/07/12 12:10:13;;;;;;;1.35;1.00;;;22.40;64.90;;;;;;5062862;28;43684;-62
2022/07/12 12:12:49;;;;;;;0.85;0.85;;;22.40;64.90;;;;;;5060727;28;43530;-62
2022/07/12 12:15:17;;;;;;;1.55;0.90;;;22.40;65.10;;;;;;5060552;28;43586;-62
2022/07/12 12:17:52;;;;;;;0.80;0.80;;;22.40;65.00;;;;;;5062401;28;44935;-62
2022/07/12 12:20:25;;;;;;;3.33;1.73;;;22.50;65.00;;;;;;5063628;28;44266;-62
2022/07/12 12:23:00;;;;;;;0.73;0.73;;;22.50;65.10;;;;;;5061824;28;43474;-62
2022/07/12 12:25:30;;;;;;;0.90;0.80;;;22.50;65.00;;;;;;5052319;28;43450;-62
2022/07/12 12:28:03;;;;;;;1.00;1.00;;;22.50;65.10;;;;;;5062878;28;43806;-62
2022/07/12 12:30:55;;;;;;;0.80;0.80;;;22.50;65.00;;;;;;5061180;28;43756;-62
2022/07/12 12:33:41;;;;;;;1.20;0.75;;;22.60;65.00;;;;;;5062958;28;43502;-62
2022/07/12 12:36:21;;;;;;;0.80;0.80;;;22.60;65.00;;;;;;5063112;28;43617;-62
2022/07/12 12:38:53;;;;;;;0.88;0.70;;;22.60;65.20;;;;;;5059873;28;44654;-62
2022/07/12 12:41:24;;;;;;;0.70;0.70;;;22.60;64.90;;;;;;5063471;28;43455;-62
2022/07/12 12:44:02;;;;;;;;;;;22.60;65.00;;;;;;5063133;28;44133;-62
2022/07/12 12:49:49;;;;;;;0.80;0.80;;;22.70;65.10;;;;;;5072546;28;43918;-62
2022/07/12 12:52:24;;;;;;;1.55;0.77;;;22.70;65.10;;;;;;5061850;28;43409;-62
2022/07/12 12:54:53;;;;;;;0.80;0.80;;;22.70;65.10;;;;;;5062707;28;43419;-62
2022/07/12 12:57:20;;;;;;;0.70;0.70;;;22.80;65.10;;;;;;5063200;28;43612;-62
2022/07/12 12:59:48;;;;;;;0.90;0.90;;;22.80;65.10;;;;;;5064098;27;44248;-62
2022/07/12 13:02:15;;;;;;;0.82;0.80;;;22.90;65.10;;;;;;5063106;28;44018;-62
2022/07/12 13:04:43;;;;;;;0.90;0.90;;;22.80;64.90;;;;;;5062941;28;43442;-62
2022/07/12 13:07:10;;;;;;;0.70;0.70;;;22.90;65.00;;;;;;5062862;28;43545;-62
2022/07/12 13:09:40;;;;;;;0.80;0.80;;;22.90;65.00;;;;;;5062409;28;44996;-62